createdAt,value
2018-01-02T00:00:27.372Z,0
2018-01-02T00:01:27.556Z,0
2018-01-02T00:02:27.404Z,0
2018-01-02T00:03:27.143Z,0
2018-01-02T00:04:27.072Z,0
2018-01-02T00:05:27.109Z,0
2018-01-02T00:06:27.388Z,0
2018-01-02T00:07:27.652Z,0
2018-01-02T00:08:27.419Z,0
2018-01-02T00:09:28.435Z,0
2018-01-02T00:10:28.184Z,0
2018-01-02T00:11:27.889Z,0
2018-01-02T00:12:28.117Z,0
2018-01-02T00:13:28.276Z,0
2018-01-02T00:14:28.667Z,0
2018-01-02T00:15:28.850Z,0
2018-01-02T00:16:28.975Z,0
2018-01-02T00:17:30.236Z,0
2018-01-02T00:18:30.646Z,0
2018-01-02T00:19:29.786Z,0
2018-01-02T00:20:30.678Z,0
2018-01-02T00:21:30.009Z,0
2018-01-02T00:22:30.510Z,0
2018-01-02T00:23:30.286Z,0
2018-01-02T00:24:30.137Z,0
2018-01-02T00:25:30.575Z,0
2018-01-02T00:26:31.840Z,0
2018-01-02T00:27:31.696Z,0
2018-01-02T00:28:31.446Z,0
2018-01-02T00:29:32.032Z,0
2018-01-02T00:30:32.288Z,0
2018-01-02T00:31:31.766Z,0
2018-01-02T00:32:32.024Z,0
2018-01-02T00:33:31.986Z,0
2018-01-02T00:34:31.703Z,0
2018-01-02T00:35:31.957Z,0
2018-01-02T00:36:32.648Z,0
2018-01-02T00:37:32.429Z,0
2018-01-02T00:38:33.121Z,0
2018-01-02T00:39:32.751Z,0
2018-01-02T00:40:33.312Z,0
2018-01-02T00:41:32.667Z,0
2018-01-02T00:42:32.967Z,0
2018-01-02T00:43:33.385Z,0
2018-01-02T00:44:32.890Z,0
2018-01-02T00:45:32.973Z,0
2018-01-02T00:46:33.228Z,0
2018-01-02T00:47:33.718Z,0
2018-01-02T00:48:33.502Z,0
2018-01-02T00:49:33.780Z,0
2018-01-02T00:50:34.009Z,0
2018-01-02T00:51:34.260Z,0
2018-01-02T00:52:34.232Z,0
2018-01-02T00:53:34.070Z,0
2018-01-02T00:54:34.398Z,0
2018-01-02T00:55:35.225Z,0
2018-01-02T00:56:34.861Z,0
2018-01-02T00:57:34.883Z,0
2018-01-02T00:58:35.365Z,0
2018-01-02T00:59:35.807Z,0
2018-01-02T01:00:35.345Z,0
2018-01-02T01:01:36.171Z,0
2018-01-02T01:02:36.084Z,0
2018-01-02T01:03:36.089Z,0
2018-01-02T01:04:36.004Z,0
2018-01-02T01:05:35.836Z,0
2018-01-02T01:06:35.910Z,0
2018-01-02T01:07:36.124Z,0
2018-01-02T01:08:36.511Z,0
2018-01-02T01:09:36.683Z,0
2018-01-02T01:10:36.533Z,0
2018-01-02T01:11:37.198Z,0
2018-01-02T01:12:37.222Z,0
2018-01-02T01:13:37.927Z,0
2018-01-02T01:14:43.066Z,0
2018-01-02T01:15:38.011Z,0
2018-01-02T01:16:37.914Z,0
2018-01-02T01:17:38.404Z,0
2018-01-02T01:18:38.834Z,0
2018-01-02T01:19:38.712Z,0
2018-01-02T01:20:39.110Z,0
2018-01-02T01:21:39.282Z,0
2018-01-02T01:22:39.225Z,0
2018-01-02T01:23:39.444Z,0
2018-01-02T01:24:39.631Z,0
2018-01-02T01:25:40.334Z,0
2018-01-02T01:26:40.470Z,0
2018-01-02T01:27:40.770Z,0
2018-01-02T01:28:40.711Z,0
2018-01-02T01:29:40.676Z,0
2018-01-02T01:30:41.328Z,0
2018-01-02T01:31:41.350Z,0
2018-01-02T01:32:41.830Z,0
2018-01-02T01:33:41.330Z,0
2018-01-02T01:34:41.080Z,0
2018-01-02T01:35:41.333Z,0
2018-01-02T01:36:41.701Z,0
2018-01-02T01:37:41.812Z,0
2018-01-02T01:38:41.477Z,0
2018-01-02T01:39:42.140Z,0
2018-01-02T01:40:44.384Z,0
2018-01-02T01:41:43.295Z,0
2018-01-02T01:42:43.524Z,0
2018-01-02T01:43:44.580Z,0
2018-01-02T01:44:45.011Z,0
2018-01-02T01:45:44.370Z,0
2018-01-02T01:46:45.424Z,0
2018-01-02T01:47:43.610Z,0
2018-01-02T01:48:44.596Z,0
2018-01-02T01:49:44.818Z,0
2018-01-02T01:50:43.731Z,0
2018-01-02T01:51:43.776Z,0
2018-01-02T01:52:44.879Z,0
2018-01-02T01:53:45.798Z,0
2018-01-02T01:54:45.720Z,0
2018-01-02T01:55:45.957Z,0
2018-01-02T01:56:45.681Z,0
2018-01-02T01:57:46.079Z,0
2018-01-02T01:58:59.496Z,0
2018-01-02T01:59:46.173Z,0
2018-01-02T02:00:43.951Z,0
2018-01-02T02:01:45.037Z,0
2018-01-02T02:02:44.214Z,0
2018-01-02T02:03:44.924Z,0
2018-01-02T02:04:45.840Z,0
2018-01-02T02:05:43.518Z,0
2018-01-02T02:06:43.933Z,0
2018-01-02T02:07:43.799Z,0
2018-01-02T02:08:43.834Z,0
2018-01-02T02:09:43.292Z,0
2018-01-02T02:10:46.135Z,0
2018-01-02T02:11:44.510Z,0
2018-01-02T02:12:44.018Z,0
2018-01-02T02:13:44.579Z,0
2018-01-02T02:14:45.100Z,0
2018-01-02T02:15:44.772Z,0
2018-01-02T02:16:45.409Z,0
2018-01-02T02:17:45.638Z,0
2018-01-02T02:18:45.726Z,0
2018-01-02T02:19:46.523Z,0
2018-01-02T02:20:45.749Z,0
2018-01-02T02:21:45.848Z,0
2018-01-02T02:22:45.340Z,0
2018-01-02T02:23:45.597Z,0
2018-01-02T02:24:45.629Z,0
2018-01-02T02:25:45.985Z,0
2018-01-02T02:26:45.964Z,0
2018-01-02T02:27:45.997Z,0
2018-01-02T02:28:45.931Z,0
2018-01-02T02:29:45.993Z,0
2018-01-02T02:30:45.651Z,0
2018-01-02T02:31:46.426Z,0
2018-01-02T02:32:45.952Z,0
2018-01-02T02:33:46.228Z,0
2018-01-02T02:34:46.524Z,0
2018-01-02T02:35:46.823Z,0
2018-01-02T02:36:46.576Z,0
2018-01-02T02:37:46.884Z,0
2018-01-02T02:38:48.197Z,0
2018-01-02T02:39:47.027Z,0
2018-01-02T02:41:01.229Z,0
2018-01-02T02:41:47.293Z,0
2018-01-02T02:42:48.556Z,0
2018-01-02T02:43:46.910Z,0
2018-01-02T02:44:48.192Z,0
2018-01-02T02:45:47.295Z,0
2018-01-02T02:46:46.913Z,0
2018-01-02T02:47:47.181Z,0
2018-01-02T02:48:47.244Z,0
2018-01-02T02:49:46.796Z,0
2018-01-02T02:50:49.289Z,0
2018-01-02T02:51:48.716Z,0
2018-01-02T02:52:47.433Z,0
2018-01-02T02:54:04.564Z,0
2018-01-02T02:54:48.901Z,0
2018-01-02T02:55:48.908Z,0
2018-01-02T02:56:49.173Z,0
2018-01-02T02:57:48.875Z,0
2018-01-02T02:58:49.115Z,0
2018-01-02T02:59:49.576Z,0
2018-01-02T03:00:49.288Z,0
2018-01-02T03:01:49.367Z,0
2018-01-02T03:02:48.758Z,0
2018-01-02T03:04:03.629Z,0
2018-01-02T03:04:48.893Z,0
2018-01-02T03:05:49.064Z,0
2018-01-02T03:06:48.980Z,0
2018-01-02T03:07:50.007Z,0
2018-01-02T03:08:49.160Z,0
2018-01-02T03:10:18.541Z,0
2018-01-02T03:11:03.687Z,0
2018-01-02T03:12:03.701Z,0
2018-01-02T03:14:03.848Z,0
2018-01-02T03:15:04.326Z,0
2018-01-02T03:16:03.302Z,0
2018-01-02T03:17:19.296Z,0
2018-01-02T03:18:04.228Z,0
2018-01-02T03:19:08.424Z,0
2018-01-02T03:20:18.934Z,0
2018-01-02T03:21:03.971Z,0
2018-01-02T03:22:14.515Z,0
2018-01-02T03:23:28.442Z,0
2018-01-02T03:24:14.007Z,0
2018-01-02T03:25:14.100Z,0
2018-01-02T03:26:14.437Z,0
2018-01-02T03:27:14.692Z,0
2018-01-02T03:28:35.081Z,0
2018-01-02T03:29:14.722Z,0
2018-01-02T03:30:16.125Z,0
2018-01-02T03:31:15.677Z,0
2018-01-02T03:32:14.978Z,0
2018-01-02T03:33:30.704Z,0
2018-01-02T03:34:15.213Z,0
2018-01-02T03:35:14.912Z,0
2018-01-02T03:36:14.759Z,0
2018-01-02T03:37:14.798Z,0
2018-01-02T03:38:15.407Z,0
2018-01-02T03:39:15.348Z,0
2018-01-02T03:40:16.932Z,0
2018-01-02T03:41:17.376Z,0
2018-01-02T03:42:16.703Z,0
2018-01-02T03:43:17.410Z,0
2018-01-02T03:44:16.724Z,0
2018-01-02T03:45:17.572Z,0
2018-01-02T03:46:17.598Z,0
2018-01-02T03:47:19.033Z,0
2018-01-02T03:48:17.783Z,0
2018-01-02T03:49:17.209Z,0
2018-01-02T03:50:17.552Z,0
2018-01-02T03:51:17.318Z,0
2018-01-02T03:52:18.069Z,0
2018-01-02T03:53:19.099Z,0
2018-01-02T03:54:17.594Z,0
2018-01-02T03:55:17.560Z,0
2018-01-02T03:56:18.970Z,0
2018-01-02T03:57:18.913Z,0
2018-01-02T03:58:18.461Z,0
2018-01-02T03:59:18.641Z,0
2018-01-02T04:00:33.814Z,0
2018-01-02T04:01:43.415Z,0
2018-01-02T04:02:28.849Z,0
2018-01-02T04:03:31.171Z,0
2018-01-02T04:04:31.212Z,0
2018-01-02T04:05:30.935Z,0
2018-01-02T04:06:31.652Z,0
2018-01-02T04:07:30.503Z,0
2018-01-02T04:08:29.548Z,0
2018-01-02T04:09:29.697Z,0
2018-01-02T04:10:30.115Z,0
2018-01-02T04:11:31.920Z,0
2018-01-02T04:12:34.878Z,0
2018-01-02T04:13:30.223Z,0
2018-01-02T04:14:45.867Z,0
2018-01-02T04:15:31.910Z,0
2018-01-02T04:16:30.941Z,0
2018-01-02T04:17:30.115Z,0
2018-01-02T04:18:30.740Z,0
2018-01-02T04:19:30.645Z,0
2018-01-02T04:20:30.745Z,0
2018-01-02T04:21:30.809Z,0
2018-01-02T04:22:30.761Z,0
2018-01-02T04:23:30.563Z,0
2018-01-02T04:24:30.813Z,0
2018-01-02T04:25:31.244Z,0
2018-01-02T04:26:30.502Z,0
2018-01-02T04:27:31.136Z,0
2018-01-02T04:28:30.542Z,0
2018-01-02T04:29:31.006Z,0
2018-01-02T04:30:32.469Z,0
2018-01-02T04:31:31.212Z,0
2018-01-02T04:32:31.822Z,0
2018-01-02T04:33:31.515Z,0
2018-01-02T04:34:31.210Z,0
2018-01-02T04:35:31.281Z,0
2018-01-02T04:36:32.176Z,0
2018-01-02T04:37:32.321Z,0
2018-01-02T04:38:32.004Z,0
2018-01-02T04:39:31.877Z,0
2018-01-02T04:40:32.330Z,0
2018-01-02T04:41:32.776Z,0
2018-01-02T04:42:32.516Z,0
2018-01-02T04:43:32.516Z,0
2018-01-02T04:44:32.731Z,0
2018-01-02T04:45:34.654Z,0
2018-01-02T04:46:33.245Z,0
2018-01-02T04:47:33.544Z,0
2018-01-02T04:48:34.231Z,0
2018-01-02T04:49:34.214Z,0
2018-01-02T04:50:34.697Z,0
2018-01-02T04:51:34.702Z,0
2018-01-02T04:52:34.322Z,0
2018-01-02T04:53:34.352Z,0
2018-01-02T04:54:34.612Z,0
2018-01-02T04:55:34.868Z,0
2018-01-02T04:56:35.175Z,0
2018-01-02T04:57:35.058Z,0
2018-01-02T04:58:35.581Z,0
2018-01-02T04:59:35.478Z,0
2018-01-02T05:00:35.530Z,0
2018-01-02T05:01:35.949Z,0
2018-01-02T05:02:36.217Z,0
2018-01-02T05:03:36.190Z,0
2018-01-02T05:04:36.492Z,0
2018-01-02T05:05:36.169Z,0
2018-01-02T05:06:36.702Z,0
2018-01-02T05:07:37.468Z,0
2018-01-02T05:08:37.285Z,0
2018-01-02T05:09:37.222Z,0
2018-01-02T05:10:37.269Z,0
2018-01-02T05:11:38.776Z,0
2018-01-02T05:12:37.633Z,0
2018-01-02T05:13:37.627Z,0
2018-01-02T05:14:37.079Z,0
2018-01-02T05:15:39.375Z,0
2018-01-02T05:16:38.461Z,0
2018-01-02T05:17:38.730Z,0
2018-01-02T05:18:38.395Z,0
2018-01-02T05:19:38.081Z,0
2018-01-02T05:20:39.023Z,0
2018-01-02T05:21:39.550Z,0
2018-01-02T05:22:38.707Z,0
2018-01-02T05:23:38.981Z,0
2018-01-02T05:24:39.293Z,0
2018-01-02T05:25:39.549Z,0
2018-01-02T05:26:40.236Z,0
2018-01-02T05:27:40.263Z,0
2018-01-02T05:28:40.436Z,0
2018-01-02T05:29:40.716Z,0
2018-01-02T05:30:39.895Z,0
2018-01-02T05:31:40.574Z,0
2018-01-02T05:32:40.337Z,0
2018-01-02T05:33:40.563Z,0
2018-01-02T05:34:40.836Z,0
2018-01-02T05:35:41.462Z,0
2018-01-02T05:36:41.044Z,0
2018-01-02T05:37:42.284Z,0
2018-01-02T05:38:42.035Z,0
2018-01-02T05:39:42.177Z,0
2018-01-02T05:40:42.383Z,0
2018-01-02T05:41:42.138Z,0
2018-01-02T05:42:42.641Z,0
2018-01-02T05:43:42.228Z,0
2018-01-02T05:44:42.526Z,0
2018-01-02T05:45:42.496Z,0
2018-01-02T05:46:42.603Z,0
2018-01-02T05:47:41.953Z,0
2018-01-02T05:48:42.226Z,0
2018-01-02T05:49:41.269Z,0
2018-01-02T05:50:41.714Z,0
2018-01-02T05:51:41.826Z,0
2018-01-02T05:52:42.450Z,0
2018-01-02T05:53:42.246Z,0
2018-01-02T05:54:42.390Z,0
2018-01-02T05:55:42.696Z,0
2018-01-02T05:56:43.094Z,0
2018-01-02T05:57:43.124Z,0
2018-01-02T05:58:42.876Z,0
2018-01-02T05:59:42.737Z,0
2018-01-02T06:00:43.126Z,0
2018-01-02T06:01:42.858Z,0
2018-01-02T06:02:43.322Z,0
2018-01-02T06:03:43.389Z,0
2018-01-02T06:04:42.876Z,0
2018-01-02T06:05:43.745Z,0
2018-01-02T06:06:43.605Z,0
2018-01-02T06:07:43.046Z,0
2018-01-02T06:08:44.782Z,0
2018-01-02T06:09:43.923Z,0
2018-01-02T06:10:44.181Z,0
2018-01-02T06:11:43.886Z,0
2018-01-02T06:12:44.668Z,0
2018-01-02T06:13:44.301Z,0
2018-01-02T06:14:44.837Z,0
2018-01-02T06:15:44.971Z,0
2018-01-02T06:16:45.587Z,0
2018-01-02T06:17:46.511Z,0
2018-01-02T06:18:45.887Z,0
2018-01-02T06:19:45.685Z,0
2018-01-02T06:20:44.890Z,0
2018-01-02T06:21:45.521Z,0
2018-01-02T06:22:44.732Z,0
2018-01-02T06:23:45.227Z,0
2018-01-02T06:24:44.928Z,0
2018-01-02T06:25:45.251Z,0
2018-01-02T06:26:45.333Z,0
2018-01-02T06:27:44.801Z,0
2018-01-02T06:28:45.590Z,0
2018-01-02T06:29:45.123Z,0
2018-01-02T06:30:45.466Z,0
2018-01-02T06:31:44.683Z,0
2018-01-02T06:32:45.085Z,0
2018-01-02T06:33:46.038Z,0
2018-01-02T06:34:46.344Z,0
2018-01-02T06:35:45.880Z,0
2018-01-02T06:36:46.561Z,0
2018-01-02T06:37:46.921Z,0
2018-01-02T06:38:46.619Z,0
2018-01-02T06:39:46.822Z,0
2018-01-02T06:40:47.553Z,0
2018-01-02T06:41:46.828Z,0
2018-01-02T06:42:47.434Z,0
2018-01-02T06:43:46.920Z,0
2018-01-02T06:44:47.677Z,0
2018-01-02T06:45:47.785Z,0
2018-01-02T06:46:47.744Z,0
2018-01-02T06:47:48.891Z,0
2018-01-02T06:48:49.303Z,0
2018-01-02T06:49:47.834Z,0
2018-01-02T06:50:47.284Z,0
2018-01-02T06:51:48.007Z,0
2018-01-02T06:52:47.778Z,0
2018-01-02T06:53:47.470Z,0
2018-01-02T06:54:49.218Z,0
2018-01-02T06:55:50.112Z,0
2018-01-02T06:56:48.340Z,0
2018-01-02T06:57:48.432Z,0
2018-01-02T06:58:48.671Z,0
2018-01-02T06:59:48.520Z,0
2018-01-02T07:00:48.323Z,0
2018-01-02T07:01:48.380Z,0
2018-01-02T07:02:48.757Z,0
2018-01-02T07:03:48.778Z,0
2018-01-02T07:04:49.482Z,0
2018-01-02T07:05:49.196Z,0
2018-01-02T07:06:49.403Z,0
2018-01-02T07:07:49.133Z,0
2018-01-02T07:08:48.843Z,0
2018-01-02T07:09:49.387Z,0
2018-01-02T07:10:50.534Z,0
2018-01-02T07:11:50.007Z,0
2018-01-02T07:12:50.140Z,0
2018-01-02T07:13:50.945Z,0
2018-01-02T07:14:50.837Z,0
2018-01-02T07:15:50.712Z,0
2018-01-02T07:16:50.263Z,0
2018-01-02T07:17:50.658Z,5
2018-01-02T07:18:50.190Z,5
2018-01-02T07:19:50.797Z,5
2018-01-02T07:20:51.229Z,5
2018-01-02T07:21:50.978Z,5
2018-01-02T07:22:51.345Z,5
2018-01-02T07:23:51.427Z,5
2018-01-02T07:24:50.673Z,5
2018-01-02T07:25:51.177Z,5
2018-01-02T07:26:51.337Z,5
2018-01-02T07:27:51.484Z,5
2018-01-02T07:28:51.575Z,5
2018-01-02T07:29:51.961Z,5
2018-01-02T07:30:52.636Z,5
2018-01-02T07:31:52.391Z,5
2018-01-02T07:32:52.445Z,5
2018-01-02T07:33:52.566Z,5
2018-01-02T07:34:53.226Z,10
2018-01-02T07:35:52.793Z,10
2018-01-02T07:36:53.410Z,10
2018-01-02T07:37:53.877Z,10
2018-01-02T07:38:54.277Z,10
2018-01-02T07:39:54.001Z,10
2018-01-02T07:40:54.213Z,10
2018-01-02T07:41:54.545Z,15
2018-01-02T07:42:54.949Z,15
2018-01-02T07:43:55.115Z,15
2018-01-02T07:44:55.155Z,15
2018-01-02T07:45:55.869Z,20
2018-01-02T07:46:55.248Z,20
2018-01-02T07:47:55.804Z,20
2018-01-02T07:48:55.879Z,20
2018-01-02T07:49:55.937Z,20
2018-01-02T07:50:55.547Z,25
2018-01-02T07:51:57.018Z,20
2018-01-02T07:52:57.353Z,20
2018-01-02T07:53:56.212Z,25
2018-01-02T07:54:56.879Z,25
2018-01-02T07:55:56.836Z,25
2018-01-02T07:56:56.850Z,20
2018-01-02T07:57:57.172Z,25
2018-01-02T07:58:57.406Z,20
2018-01-02T07:59:57.129Z,20
2018-01-02T08:00:57.993Z,20
2018-01-02T08:01:57.874Z,20
2018-01-02T08:02:56.902Z,20
2018-01-02T08:03:57.164Z,20
2018-01-02T08:04:57.289Z,25
2018-01-02T08:05:57.542Z,30
2018-01-02T08:06:57.875Z,35
2018-01-02T08:07:56.995Z,30
2018-01-02T08:08:57.958Z,30
2018-01-02T08:09:57.517Z,30
2018-01-02T08:10:58.090Z,30
2018-01-02T08:11:58.166Z,25
2018-01-02T08:12:57.657Z,25
2018-01-02T08:13:59.147Z,20
2018-01-02T08:14:57.944Z,25
2018-01-02T08:15:57.688Z,30
2018-01-02T08:16:58.290Z,35
2018-01-02T08:17:58.198Z,35
2018-01-02T08:18:58.736Z,40
2018-01-02T08:19:59.380Z,40
2018-01-02T08:20:59.465Z,45
2018-01-02T08:21:59.548Z,45
2018-01-02T08:22:59.715Z,50
2018-01-02T08:24:00.521Z,45
2018-01-02T08:25:00.559Z,50
2018-01-02T08:25:59.814Z,45
2018-01-02T08:27:00.633Z,40
2018-01-02T08:28:00.102Z,45
2018-01-02T08:29:00.649Z,45
2018-01-02T08:30:00.660Z,55
2018-01-02T08:31:00.653Z,60
2018-01-02T08:32:00.381Z,65
2018-01-02T08:33:00.547Z,70
2018-01-02T08:34:00.891Z,60
2018-01-02T08:35:01.259Z,60
2018-01-02T08:36:00.554Z,60
2018-01-02T08:37:01.057Z,65
2018-01-02T08:38:01.796Z,60
2018-01-02T08:39:01.007Z,55
2018-01-02T08:40:01.492Z,65
2018-01-02T08:41:02.071Z,70
2018-01-02T08:42:01.778Z,70
2018-01-02T08:43:03.647Z,70
2018-01-02T08:44:04.874Z,70
2018-01-02T08:45:04.040Z,75
2018-01-02T08:46:03.475Z,95
2018-01-02T08:47:03.647Z,115
2018-01-02T08:48:03.354Z,90
2018-01-02T08:49:02.992Z,95
2018-01-02T08:50:04.244Z,80
2018-01-02T08:51:03.848Z,70
2018-01-02T08:52:03.025Z,75
2018-01-02T08:53:03.090Z,65
2018-01-02T08:54:03.018Z,60
2018-01-02T08:55:03.295Z,55
2018-01-02T08:56:03.574Z,60
2018-01-02T08:57:03.215Z,70
2018-01-02T08:58:03.169Z,75
2018-01-02T08:59:03.085Z,70
2018-01-02T09:01:02.788Z,80
2018-01-02T09:02:04.088Z,80
2018-01-02T09:03:03.100Z,75
2018-01-02T09:04:03.354Z,75
2018-01-02T09:05:04.032Z,60
2018-01-02T09:06:04.694Z,60
2018-01-02T09:07:06.699Z,65
2018-01-02T09:08:04.245Z,65
2018-01-02T09:09:03.993Z,70
2018-01-02T09:10:04.406Z,80
2018-01-02T09:11:04.155Z,75
2018-01-02T09:12:05.151Z,85
2018-01-02T09:13:04.736Z,90
2018-01-02T09:14:04.618Z,85
2018-01-02T09:15:04.556Z,85
2018-01-02T09:16:04.545Z,85
2018-01-02T09:17:04.524Z,95
2018-01-02T09:18:04.665Z,100
2018-01-02T09:19:05.518Z,110
2018-01-02T09:20:05.681Z,100
2018-01-02T09:21:05.370Z,110
2018-01-02T09:22:05.478Z,120
2018-01-02T09:23:05.499Z,95
2018-01-02T09:24:05.471Z,100
2018-01-02T09:25:05.975Z,100
2018-01-02T09:26:05.372Z,95
2018-01-02T09:27:06.113Z,80
2018-01-02T09:28:05.405Z,75
2018-01-02T09:29:05.953Z,70
2018-01-02T09:30:06.591Z,70
2018-01-02T09:31:06.770Z,70
2018-01-02T09:32:06.976Z,80
2018-01-02T09:33:07.130Z,85
2018-01-02T09:34:07.244Z,85
2018-01-02T09:35:07.216Z,80
2018-01-02T09:36:07.240Z,70
2018-01-02T09:37:06.807Z,65
2018-01-02T09:38:07.360Z,65
2018-01-02T09:39:07.570Z,65
2018-01-02T09:40:07.645Z,60
2018-01-02T09:41:07.014Z,60
2018-01-02T09:42:07.418Z,60
2018-01-02T09:43:08.614Z,60
2018-01-02T09:44:07.302Z,65
2018-01-02T09:45:08.029Z,75
2018-01-02T09:46:08.026Z,80
2018-01-02T09:47:09.017Z,80
2018-01-02T09:48:08.865Z,75
2018-01-02T09:49:10.155Z,75
2018-01-02T09:50:09.351Z,65
2018-01-02T09:51:08.980Z,75
2018-01-02T09:52:09.390Z,75
2018-01-02T09:53:09.823Z,80
2018-01-02T09:54:09.272Z,80
2018-01-02T09:55:09.393Z,70
2018-01-02T09:56:09.910Z,70
2018-01-02T09:57:09.558Z,60
2018-01-02T09:58:09.591Z,55
2018-01-02T09:59:09.496Z,55
2018-01-02T10:00:24.517Z,60
2018-01-02T10:01:09.954Z,55
2018-01-02T10:03:23.707Z,55
2018-01-02T10:04:24.134Z,50
2018-01-02T10:05:24.265Z,45
2018-01-02T10:06:24.916Z,45
2018-01-02T10:07:25.004Z,50
2018-01-02T10:08:24.468Z,45
2018-01-02T10:09:24.928Z,45
2018-01-02T10:10:24.905Z,55
2018-01-02T10:11:25.324Z,50
2018-01-02T10:12:25.163Z,65
2018-01-02T10:13:25.434Z,70
2018-01-02T10:14:25.306Z,85
2018-01-02T10:15:25.828Z,70
2018-01-02T10:16:25.170Z,75
2018-01-02T10:17:25.724Z,75
2018-01-02T10:18:25.499Z,80
2018-01-02T10:19:25.905Z,80
2018-01-02T10:20:26.058Z,80
2018-01-02T10:21:26.173Z,85
2018-01-02T10:22:26.360Z,95
2018-01-02T10:23:26.424Z,90
2018-01-02T10:24:26.881Z,90
2018-01-02T10:25:27.046Z,90
2018-01-02T10:26:27.497Z,90
2018-01-02T10:27:27.705Z,80
2018-01-02T10:28:28.224Z,85
2018-01-02T10:29:28.038Z,75
2018-01-02T10:30:28.018Z,70
2018-01-02T10:31:28.475Z,65
2018-01-02T10:32:28.028Z,60
2018-01-02T10:33:28.848Z,55
2018-01-02T10:34:34.176Z,60
2018-01-02T10:35:34.405Z,60
2018-01-02T10:36:34.205Z,65
2018-01-02T10:37:34.345Z,65
2018-01-02T10:38:34.880Z,65
2018-01-02T10:39:34.635Z,70
2018-01-02T10:40:35.101Z,70
2018-01-02T10:41:35.073Z,75
2018-01-02T10:42:35.171Z,65
2018-01-02T10:43:35.244Z,55
2018-01-02T10:44:35.609Z,65
2018-01-02T10:45:35.953Z,70
2018-01-02T10:46:36.095Z,70
2018-01-02T10:47:37.685Z,70
2018-01-02T10:48:38.947Z,70
2018-01-02T10:49:38.372Z,65
2018-01-02T10:50:38.816Z,60
2018-01-02T10:51:38.644Z,55
2018-01-02T10:52:39.320Z,50
2018-01-02T10:53:36.949Z,50
2018-01-02T10:54:37.198Z,50
2018-01-02T10:55:37.768Z,50
2018-01-02T10:56:37.627Z,50
2018-01-02T10:57:37.419Z,45
2018-01-02T10:58:38.094Z,40
2018-01-02T10:59:37.705Z,35
2018-01-02T11:00:52.867Z,30
2018-01-02T11:01:38.573Z,25
2018-01-02T11:02:40.606Z,25
2018-01-02T11:03:40.761Z,25
2018-01-02T11:04:41.494Z,25
2018-01-02T11:05:40.441Z,25
2018-01-02T11:06:40.382Z,30
2018-01-02T11:07:39.203Z,30
2018-01-02T11:08:41.612Z,25
2018-01-02T11:09:42.503Z,25
2018-01-02T11:10:41.953Z,45
2018-01-02T11:11:42.536Z,50
2018-01-02T11:12:42.542Z,45
2018-01-02T11:13:42.204Z,50
2018-01-02T11:14:42.263Z,40
2018-01-02T11:15:41.379Z,50
2018-01-02T11:16:42.502Z,50
2018-01-02T11:17:41.644Z,45
2018-01-02T11:18:42.610Z,40
2018-01-02T11:19:42.082Z,40
2018-01-02T11:20:41.498Z,35
2018-01-02T11:21:42.201Z,45
2018-01-02T11:22:42.385Z,55
2018-01-02T11:23:42.667Z,60
2018-01-02T11:24:42.371Z,65
2018-01-02T11:25:41.351Z,80
2018-01-02T11:26:39.803Z,75
2018-01-02T11:27:40.392Z,65
2018-01-02T11:28:40.017Z,65
2018-01-02T11:29:40.274Z,60
2018-01-02T11:30:40.955Z,70
2018-01-02T11:31:40.822Z,75
2018-01-02T11:32:40.498Z,55
2018-01-02T11:33:40.812Z,50
2018-01-02T11:34:41.053Z,50
2018-01-02T11:35:41.475Z,50
2018-01-02T11:36:41.123Z,50
2018-01-02T11:37:40.894Z,60
2018-01-02T11:38:41.176Z,60
2018-01-02T11:39:41.449Z,55
2018-01-02T11:40:41.108Z,55
2018-01-02T11:41:41.623Z,60
2018-01-02T11:42:41.462Z,70
2018-01-02T11:43:41.762Z,75
2018-01-02T11:44:41.636Z,70
2018-01-02T11:45:41.991Z,70
2018-01-02T11:46:42.184Z,80
2018-01-02T11:47:42.704Z,85
2018-01-02T11:48:42.154Z,90
2018-01-02T11:49:42.572Z,80
2018-01-02T11:50:42.937Z,95
2018-01-02T11:51:43.578Z,105
2018-01-02T11:52:43.136Z,125
2018-01-02T11:53:43.658Z,140
2018-01-02T11:54:43.223Z,140
2018-01-02T11:55:43.334Z,115
2018-01-02T11:56:43.828Z,105
2018-01-02T11:57:43.412Z,110
2018-01-02T11:58:43.593Z,100
2018-01-02T11:59:44.071Z,105
2018-01-02T12:00:44.044Z,95
2018-01-02T12:01:43.905Z,140
2018-01-02T12:02:43.912Z,170
2018-01-02T12:03:44.066Z,175
2018-01-02T12:04:44.508Z,155
2018-01-02T12:05:45.069Z,140
2018-01-02T12:06:44.769Z,145
2018-01-02T12:07:45.282Z,135
2018-01-02T12:08:45.137Z,145
2018-01-02T12:09:44.801Z,155
2018-01-02T12:10:45.434Z,130
2018-01-02T12:11:45.280Z,130
2018-01-02T12:12:45.679Z,140
2018-01-02T12:13:45.862Z,140
2018-01-02T12:14:46.904Z,135
2018-01-02T12:15:46.154Z,120
2018-01-02T12:16:46.419Z,130
2018-01-02T12:17:47.030Z,130
2018-01-02T12:18:46.531Z,110
2018-01-02T12:19:47.085Z,100
2018-01-02T12:20:47.127Z,110
2018-01-02T12:21:47.960Z,110
2018-01-02T12:22:47.218Z,125
2018-01-02T12:23:47.059Z,125
2018-01-02T12:24:47.733Z,130
2018-01-02T12:25:47.564Z,140
2018-01-02T12:26:49.844Z,125
2018-01-02T12:27:48.534Z,150
2018-01-02T12:28:51.189Z,130
2018-01-02T12:29:49.806Z,135
2018-01-02T12:30:51.527Z,145
2018-01-02T12:31:50.234Z,140
2018-01-02T12:32:52.021Z,140
2018-01-02T12:33:49.788Z,115
2018-01-02T12:34:49.273Z,110
2018-01-02T12:35:49.774Z,100
2018-01-02T12:36:51.204Z,95
2018-01-02T12:37:49.709Z,105
2018-01-02T12:38:52.316Z,105
2018-01-02T12:39:50.605Z,75
2018-01-02T12:40:51.270Z,80
2018-01-02T12:41:51.166Z,85
2018-01-02T12:42:51.660Z,65
2018-01-02T12:43:50.916Z,65
2018-01-02T12:44:50.679Z,60
2018-01-02T12:45:50.809Z,50
2018-01-02T12:46:51.515Z,50
2018-01-02T12:47:51.262Z,50
2018-01-02T12:48:50.881Z,85
2018-01-02T12:49:52.173Z,90
2018-01-02T12:50:51.728Z,55
2018-01-02T12:51:52.150Z,55
2018-01-02T12:52:52.544Z,70
2018-01-02T12:53:52.840Z,75
2018-01-02T12:54:52.970Z,70
2018-01-02T12:55:52.724Z,85
2018-01-02T12:56:53.701Z,100
2018-01-02T12:57:53.161Z,105
2018-01-02T12:58:53.298Z,95
2018-01-02T12:59:53.691Z,90
2018-01-02T13:00:53.955Z,75
2018-01-02T13:01:53.668Z,70
2018-01-02T13:02:54.223Z,70
2018-01-02T13:03:54.044Z,80
2018-01-02T13:04:53.972Z,85
2018-01-02T13:05:53.916Z,90
2018-01-02T13:06:54.345Z,100
2018-01-02T13:07:54.915Z,110
2018-01-02T13:08:55.042Z,115
2018-01-02T13:09:55.078Z,115
2018-01-02T13:10:55.203Z,110
2018-01-02T13:11:55.608Z,105
2018-01-02T13:12:55.923Z,115
2018-01-02T13:13:55.698Z,120
2018-01-02T13:14:56.079Z,125
2018-01-02T13:15:55.806Z,120
2018-01-02T13:16:56.353Z,95
2018-01-02T13:17:56.270Z,80
2018-01-02T13:18:56.536Z,85
2018-01-02T13:19:57.441Z,75
2018-01-02T13:20:57.376Z,80
2018-01-02T13:21:57.282Z,75
2018-01-02T13:22:57.742Z,60
2018-01-02T13:23:58.253Z,50
2018-01-02T13:24:57.610Z,45
2018-01-02T13:25:56.976Z,45
2018-01-02T13:26:57.689Z,35
2018-01-02T13:27:57.193Z,50
2018-01-02T13:28:57.814Z,50
2018-01-02T13:29:57.809Z,60
2018-01-02T13:30:57.732Z,65
2018-01-02T13:31:59.364Z,70
2018-01-02T13:33:12.752Z,70
2018-01-02T13:33:57.782Z,75
2018-01-02T13:35:03.166Z,85
2018-01-02T13:36:02.913Z,80
2018-01-02T13:37:02.867Z,75
2018-01-02T13:38:03.355Z,80
2018-01-02T13:39:03.337Z,80
2018-01-02T13:40:03.233Z,70
2018-01-02T13:41:03.375Z,65
2018-01-02T13:42:04.026Z,65
2018-01-02T13:43:04.070Z,55
2018-01-02T13:44:03.731Z,60
2018-01-02T13:45:04.931Z,75
2018-01-02T13:46:04.307Z,85
2018-01-02T13:47:04.945Z,105
2018-01-02T13:48:04.860Z,95
2018-01-02T13:49:05.059Z,80
2018-01-02T13:50:05.197Z,90
2018-01-02T13:51:05.611Z,90
2018-01-02T13:52:05.971Z,100
2018-01-02T13:53:06.601Z,95
2018-01-02T13:54:06.137Z,95
2018-01-02T13:55:06.884Z,85
2018-01-02T13:56:06.633Z,100
2018-01-02T13:57:06.814Z,110
2018-01-02T13:58:06.362Z,100
2018-01-02T13:59:06.515Z,95
2018-01-02T14:01:06.987Z,80
2018-01-02T14:02:07.140Z,70
2018-01-02T14:03:07.770Z,70
2018-01-02T14:04:07.636Z,75
2018-01-02T14:05:07.644Z,80
2018-01-02T14:06:08.305Z,75
2018-01-02T14:07:08.129Z,70
2018-01-02T14:08:08.753Z,65
2018-01-02T14:09:07.610Z,65
2018-01-02T14:10:08.286Z,55
2018-01-02T14:11:07.395Z,60
2018-01-02T14:12:08.992Z,55
2018-01-02T14:13:07.848Z,55
2018-01-02T14:14:10.067Z,55
2018-01-02T14:15:08.993Z,55
2018-01-02T14:16:08.457Z,50
2018-01-02T14:17:08.153Z,50
2018-01-02T14:18:08.204Z,50
2018-01-02T14:19:08.041Z,45
2018-01-02T14:20:08.547Z,45
2018-01-02T14:21:52.820Z,40
2018-01-02T14:22:22.940Z,40
2018-01-02T14:23:09.550Z,40
2018-01-02T14:24:09.362Z,40
2018-01-02T14:25:10.024Z,40
2018-01-02T14:26:08.788Z,35
2018-01-02T14:27:09.847Z,25
2018-01-02T14:28:08.863Z,25
2018-01-02T14:29:09.216Z,25
2018-01-02T14:30:09.379Z,25
2018-01-02T14:31:08.630Z,25
2018-01-02T14:32:09.600Z,20
2018-01-02T14:33:09.661Z,20
2018-01-02T14:34:10.599Z,15
2018-01-02T14:35:10.167Z,15
2018-01-02T14:36:09.603Z,10